Tiempo atmosférico en la estación meteorológica de Pollença Aeródromo, Illes Balears (2 m.)



Fecha
DESCASC
Temp. máxima en grados centígrados (hora)
DESCASC
Temp. mínima en grados centígrados (hora)
DESCASC
Temp. media en grados centígrados
DESCASC
Racha de viento máxima en m/sg (hora)
DESCASC
Velocidad máxima media en intervalos de 10 minutos(hora)
DESCASC
Precipitaciones diarias en mm
DESCASC
Precipitaciones de 00:00 a 06:00 en mm
DESCASC
Precipitaciones de 06:00 a 12:00 en mm
DESCASC
Precipitaciones de 12:00 a 18:00 en mm
DESCASC
Precipitaciones de 18:00 a 24:00 en mm
DESCASC

Gráficas

Temp. máximas Temp. mínimas Temp. medias Precipitaciones Rachas de viento máximas Velocidades máximas media en intervalos de 10 minutos

Datos horarios

Fecha y hora oficial Temperatura (ºC) Velocidad del viento (km/h) Dirección del viento Racha (km/h) Dirección de racha Precipitación (mm) Presión (hPa) Tendencia (hPa) Humedad (%)
2019-05-25 23:00:00 17.5 4 Noroeste 18 Noroeste 0 -- -- 81
2019-05-25 22:00:00 17.3 5 Noroeste 16 Norte 0 -- -- 83
2019-05-25 21:00:00 17.1 4 Noroeste 17 Sudoeste 0 -- -- 85
2019-05-25 20:00:00 17.2 6 Noroeste 22 Norte 0 -- -- 83
2019-05-25 19:00:00 17.8 7 Noroeste 20 Noroeste 0 -- -- 82
2019-05-25 18:00:00 17.8 6 Noroeste 22 Noroeste 0 -- -- 84
2019-05-25 17:00:00 17.7 6 Noroeste 21 Norte 0 -- -- 86
2019-05-25 16:00:00 17.6 4 Noroeste 23 Norte 0 -- -- 87
2019-05-25 15:00:00 17.8 8 Norte 22 Norte 0 -- -- 84
2019-05-25 14:00:00 17.1 6 Norte 19 Noroeste 0.2 -- -- 92
2019-05-25 13:00:00 16.4 8 Norte 22 Norte 0 -- -- 94
2019-05-25 12:00:00 16 7 Norte 15 Norte 2 -- -- 97
2019-05-25 11:00:00 15.5 0 Calma 4 Norte 3.6 -- -- 96
2019-05-25 10:00:00 15.6 0 Calma 4 Norte 0.2 -- -- 96
2019-05-25 09:00:00 15.3 3 Este 12 Este 1.2 -- -- 97
2019-05-25 08:00:00 15 0 Calma 6 Norte 2.6 -- -- 97
2019-05-25 07:00:00 14.9 3 Norte 9 Nordeste 1 -- -- 97
2019-05-25 06:00:00 14.8 3 Nordeste 9 Nordeste 1.6 -- -- 96
2019-05-25 05:00:00 14.9 4 Norte 14 Nordeste 1 -- -- 95
2019-05-25 04:00:00 15.3 4 Norte 12 Noroeste 0.4 -- -- 94
2019-05-25 03:00:00 15.8 3 Norte 12 Nordeste 0 -- -- 92
2019-05-25 02:00:00 15.9 6 Nordeste 16 Nordeste 0 -- -- 94
2019-05-25 01:00:00 15.7 3 Norte 10 Norte 0 -- -- 96
2019-05-25 00:00:00 15.2 3 Norte 7 Norte 0 -- -- 97
2019-05-24 23:00:00 14.8 0 Calma 5 Noroeste 0 -- -- 97
2019-05-24 22:00:00 14.6 3 Nordeste 5 Nordeste 0 -- -- 95
2019-05-24 21:00:00 14.7 0 Calma 4 Norte 0 -- -- 94
2019-05-24 20:00:00 15.2 2 Norte 4 Este 0.2 -- -- 91
2019-05-24 19:00:00 16.2 2 Este 10 Este 2.4 -- -- 89
2019-05-24 18:00:00 17.6 0 Calma 15 Norte 0.4 -- -- 85
2019-05-24 17:00:00 17.9 7 Norte 19 Norte 0.2 -- -- 82
2019-05-24 16:00:00 18.4 5 Norte 17 Nordeste 0 -- -- 69
2019-05-24 15:00:00 18.4 3 Norte 11 Oeste 0 -- -- 69
2019-05-24 14:00:00 18.5 2 Sudoeste 3 Oeste 0 -- -- 69
2019-05-24 13:00:00 17.7 2 Norte 15 Oeste 0.8 -- -- 78
2019-05-24 12:00:00 20.1 5 Nordeste 28 Norte 0 -- -- 52
2019-05-24 11:00:00 20.2 11 Norte 29 Norte 0 -- -- 61
2019-05-24 10:00:00 20.2 0 Calma 7 Sudoeste 0 -- -- 57
2019-05-24 09:00:00 19.5 6 Sur 8 Sur 0 -- -- 63
2019-05-24 08:00:00 17 3 Oeste 7 Sur 0 -- -- 63
2019-05-24 07:00:00 15.2 2 Norte 4 Nordeste 0 -- -- 60
2019-05-24 06:00:00 14.3 0 Calma 4 Este 0 -- -- 62
2019-05-24 05:00:00 13.6 0 Calma 5 Norte 0 -- -- 62
2019-05-24 04:00:00 14.7 0 Calma 5 Este 0 -- -- 57
2019-05-24 03:00:00 14.4 0 Calma 4 Norte 0 -- -- 57
2019-05-24 02:00:00 15 3 Norte 5 Norte 0 -- -- 57
2019-05-24 01:00:00 15.4 2 Nordeste 7 Sudeste 0 -- -- 57
2019-05-24 00:00:00 16.3 3 Este 6 Este 0 -- -- 57
2019-05-23 23:00:00 18 3 Este 13 Sudoeste 0 -- -- 53
2019-05-23 22:00:00 20.7 10 Sur 20 Sur 0 -- -- 54
2019-05-23 21:00:00 21.8 8 Sur 19 Sur 0 -- -- 49
2019-05-23 20:00:00 23 13 Sur 25 Sur 0 -- -- 47
2019-05-23 19:00:00 24.6 20 Sur 26 Sur 0 -- -- 38
2019-05-23 18:00:00 26.6 5 Sur 15 Noroeste 0 -- -- 42
2019-05-23 17:00:00 26.9 10 Norte 23 Norte 0 -- -- 33
2019-05-23 16:00:00 26.3 12 Norte 26 Norte 0 -- -- 36
2019-05-23 15:00:00 24.2 13 Norte 26 Norte 0 -- -- 45
2019-05-23 14:00:00 25.3 9 Nordeste 30 Este 0 -- -- 41
2019-05-23 13:00:00 23.8 14 Este 30 Este 0 -- -- 53
2019-05-23 12:00:00 25.1 9 Este 21 Este 0 -- -- 43
2019-05-23 11:00:00 22.8 5 Sur 9 Sur 0 -- -- 55
2019-05-23 10:00:00 21.3 4 Sur 7 Sur 0 -- -- 52
2019-05-23 09:00:00 19.3 3 Sudeste 5 Sudeste 0 -- -- 53
2019-05-23 08:00:00 13.3 2 Sudoeste 5 Sudoeste 0 -- -- 89
2019-05-23 07:00:00 11.1 4 Norte 8 Norte 0 -- -- 93
2019-05-23 06:00:00 11.1 3 Norte 4 Norte 0 -- -- 92
2019-05-23 05:00:00 11.5 -- -- -- -- 0 -- -- 91
2019-05-23 04:00:00 12 2 Nordeste 3 Nordeste 0 -- -- 89
2019-05-23 03:00:00 12.6 2 Norte 4 Este 0 -- -- 87
2019-05-23 02:00:00 13.1 2 Este 5 Este 0 -- -- 86
2019-05-23 01:00:00 13.8 0 Calma 5 Este 0 -- -- 83
2019-05-23 00:00:00 14.7 2 Este 5 Sur 0 -- -- 80
2019-05-22 23:00:00 15.7 3 Norte 6 Norte 0 -- -- 77
2019-05-22 22:00:00 17.2 0 Calma 4 Norte 0 -- -- 69
2019-05-22 21:00:00 19.3 0 Calma 19 Este 0 -- -- 62
2019-05-22 20:00:00 20.5 13 Este 24 Este 0 -- -- 61
2019-05-22 19:00:00 23 10 Este 21 Este 0 -- -- 45
2019-05-22 18:00:00 23.9 8 Este 21 Este 0 -- -- 40
2019-05-22 17:00:00 23 8 Este 21 Este 0 -- -- 57
2019-05-22 16:00:00 23.4 9 Este 24 Sudeste 0 -- -- 61
2019-05-22 15:00:00 23.2 12 Norte 24 Norte 0 -- -- 59
2019-05-22 14:00:00 23.3 12 Norte 21 Noroeste 0 -- -- 59
2019-05-22 13:00:00 23.7 8 Norte 19 Norte 0 -- -- 49
2019-05-22 12:00:00 23.4 11 Norte 18 Norte 0 -- -- 49
2019-05-22 11:00:00 23.6 4 Sur 12 Sudeste 0 -- -- 55
2019-05-22 10:00:00 19.9 3 Nordeste 14 Nordeste 0 -- -- 66
2019-05-22 09:00:00 18 4 Sur 6 Sur 0 -- -- 73
2019-05-22 08:00:00 13.8 0 Calma 3 Noroeste 0 -- -- 85
2019-05-22 07:00:00 11.2 0 Calma 3 Norte 0 -- -- 88
2019-05-22 06:00:00 11.3 0 Calma 3 Norte 0 -- -- 85
2019-05-22 05:00:00 11.6 2 Noroeste 3 Norte 0 -- -- 86
2019-05-22 04:00:00 12.3 2 Norte 4 Norte 0 -- -- 86
2019-05-22 03:00:00 13.2 2 Norte 6 Norte 0 -- -- 87
2019-05-22 02:00:00 14.1 2 Sudeste 6 Sur 0 -- -- 84
2019-05-22 01:00:00 14 0 Calma 9 Nordeste 0 -- -- 81
2019-05-22 00:00:00 14.8 0 Calma 5 Nordeste 0 -- -- 82
2019-05-21 23:00:00 16.3 0 Calma 10 Sur 0 -- -- 78
2019-05-21 22:00:00 18.1 7 Sur 14 Sur 0 -- -- 75
2019-05-21 21:00:00 18.9 0 Calma 9 Sudeste 0 -- -- 71
2019-05-21 20:00:00 20 6 Este 17 Este 0 -- -- 65
2019-05-21 19:00:00 19.3 12 Nordeste 24 Este 0 -- -- 67
2019-05-21 18:00:00 20.8 8 Este 21 Nordeste 0 -- -- 59
2019-05-21 17:00:00 21.9 5 Este 19 Sudeste 0 -- -- 51
2019-05-21 16:00:00 22.9 7 Norte 24 Norte 0 -- -- 41
2019-05-21 15:00:00 24 9 Norte 21 Norte 0 -- -- 39
2019-05-21 14:00:00 23.5 6 Norte 18 Norte 0 -- -- 33
2019-05-21 13:00:00 24.4 4 Norte 19 Norte 0 -- -- 41
2019-05-21 12:00:00 23.6 7 Este 14 Este 0 -- -- 33
2019-05-21 11:00:00 21.6 5 Sudoeste 9 Sudoeste 0 -- -- 52
2019-05-21 10:00:00 20.3 5 Sur 7 Sudeste 0 -- -- 63
2019-05-21 09:00:00 18 2 Sudeste 5 Sur 0 -- -- 64
2019-05-21 08:00:00 13.5 0 Calma 4 Norte 0 -- -- 93
2019-05-21 07:00:00 10.9 2 Norte 4 Nordeste 0 -- -- 93
2019-05-21 06:00:00 10.6 0 Calma 4 Noroeste 0 -- -- 91
2019-05-21 05:00:00 11 2 Norte 4 Norte 0 -- -- 91
2019-05-21 04:00:00 11.2 2 Norte 4 Norte 0 -- -- 89
2019-05-21 03:00:00 11.8 2 Noroeste 4 Norte 0 -- -- 88
2019-05-21 02:00:00 12.3 2 Norte 6 Nordeste 0 -- -- 86
2019-05-21 01:00:00 13.3 2 Norte 5 Norte 0 -- -- 80
2019-05-21 00:00:00 15.3 0 Calma 9 Nordeste 0 -- -- 75
2019-05-20 23:00:00 16.2 4 Nordeste 14 Nordeste 0 -- -- 71
2019-05-20 22:00:00 16.9 8 Nordeste 15 Nordeste 0 -- -- 70
2019-05-20 21:00:00 18.1 3 Norte 12 Norte 0 -- -- 52
2019-05-20 20:00:00 20 6 Norte 28 Noroeste 0 -- -- 36
2019-05-20 19:00:00 21.2 10 Norte 26 Norte 0 -- -- 37
2019-05-20 18:00:00 21.7 12 Norte 32 Norte 0 -- -- 34
2019-05-20 17:00:00 21.6 14 Norte 33 Noroeste 0 -- -- 34
2019-05-20 16:00:00 22.7 10 Noroeste 29 Norte 0 -- -- 35
2019-05-20 15:00:00 21.6 9 Norte 36 Norte 0 -- -- 39
2019-05-20 14:00:00 20.2 15 Norte 33 Norte 0 -- -- 49
2019-05-20 13:00:00 20 14 Norte 41 Nordeste 0 -- -- 53
2019-05-20 12:00:00 20.7 9 Noroeste 21 Norte 0 -- -- 53
2019-05-20 11:00:00 20.1 7 Noroeste 22 Norte 0 -- -- 54
2019-05-20 10:00:00 18.6 6 Noroeste 24 Norte 0 -- -- 64
2019-05-20 09:00:00 18.5 6 Noroeste 19 Oeste 0 -- -- 60
2019-05-20 08:00:00 15 2 Noroeste 16 Oeste 0 -- -- 78
2019-05-20 07:00:00 11.9 2 Norte 5 Norte 0 -- -- 93
2019-05-20 06:00:00 11 2 Norte 4 Norte 0 -- -- 91
2019-05-20 05:00:00 11 2 Norte 6 Norte 0 -- -- 91
2019-05-20 04:00:00 11.9 0 Calma 8 Norte 0 -- -- 89
2019-05-20 03:00:00 13.3 0 Calma 10 Sudoeste 0 -- -- 87
2019-05-20 02:00:00 13.6 0 Calma 6 Norte 0 -- -- 88
2019-05-20 01:00:00 13.8 0 Calma 3 Norte 0 -- -- 81
2019-05-20 00:00:00 14.3 2 Norte 8 Sudoeste 0 -- -- 79
2019-05-19 23:00:00 14.9 5 Sudoeste 10 Sudoeste 0 -- -- 79
2019-05-19 22:00:00 14.1 4 Norte 9 Norte 0 -- -- 76
2019-05-19 21:00:00 15.3 4 Norte 19 Nordeste 0 -- -- 70
2019-05-19 20:00:00 16.4 6 Norte 24 Norte 0 -- -- 67
2019-05-19 19:00:00 19.5 6 Noroeste 22 Oeste 0 -- -- 52
2019-05-19 18:00:00 20.2 8 Noroeste 30 Oeste 0 -- -- 50
2019-05-19 17:00:00 20.3 8 Noroeste 27 Oeste 0 -- -- 50
2019-05-19 16:00:00 20.4 8 Oeste 28 Sur 0 -- -- 51
2019-05-19 15:00:00 20.5 8 Noroeste 22 Norte 0 -- -- 53
2019-05-19 14:00:00 19.3 8 Noroeste 19 Noroeste 0 -- -- 56
2019-05-19 13:00:00 19.5 8 Noroeste 21 Norte 0 -- -- 56
2019-05-19 12:00:00 18.3 9 Noroeste 27 Oeste 0 -- -- 55
2019-05-19 11:00:00 17 6 Noroeste 24 Sudoeste 0 -- -- 60
2019-05-19 10:00:00 18.4 6 Oeste 24 Oeste 0 -- -- 57
2019-05-19 09:00:00 17.7 6 Noroeste 22 Noroeste 0 -- -- 62
2019-05-19 08:00:00 15.9 9 Noroeste 22 Norte 0 -- -- 66
2019-05-19 07:00:00 15.2 9 Noroeste 22 Noroeste 0 -- -- 69
2019-05-19 06:00:00 15.1 6 Noroeste 21 Nordeste 0 -- -- 66
2019-05-19 05:00:00 14.9 2 Noroeste 22 Sur 0 -- -- 73
2019-05-19 04:00:00 15.7 10 Sur 21 Norte 0 -- -- 74
2019-05-19 03:00:00 12.4 2 Norte 7 Oeste 0 -- -- 87
2019-05-19 02:00:00 11.6 3 Nordeste 6 Este 0 -- -- 82
2019-05-19 01:00:00 11.5 0 Calma 6 Norte 0 -- -- 81
2019-05-19 00:00:00 11.6 4 Norte 5 Nordeste 0 -- -- 78
2019-05-18 23:00:00 12.9 2 Norte 4 Norte 0 -- -- 72
2019-05-18 22:00:00 15.6 0 Calma 9 Sur 0 -- -- 64
2019-05-18 21:00:00 16.7 2 Noroeste 16 Nordeste 0 -- -- 50
2019-05-18 20:00:00 18.1 6 Norte 21 Norte 0 -- -- 40
2019-05-18 19:00:00 19 5 Norte 23 Norte 0 -- -- 42
2019-05-18 18:00:00 20.3 9 Norte 24 Norte 0 -- -- 41
2019-05-18 17:00:00 20.8 12 Norte 23 Norte 0 -- -- 43
2019-05-18 16:00:00 21.3 4 Noroeste 17 Noroeste 0 -- -- 45
2019-05-18 15:00:00 19.6 7 Norte 25 Norte 0 -- -- 54
2019-05-18 14:00:00 18.8 6 Noroeste 28 Noroeste 0 -- -- 56
2019-05-18 13:00:00 19.3 3 Noroeste 15 Oeste 0 -- -- 50
2019-05-18 12:00:00 20 3 Oeste 17 Oeste 0 -- -- 53
2019-05-18 11:00:00 18.8 5 Oeste 13 Oeste 0 -- -- 53
2019-05-18 10:00:00 18.9 2 Sudoeste 11 Sudoeste 0 -- -- 62
2019-05-18 09:00:00 16.9 4 Sudoeste 8 Sur 0 -- -- 70
2019-05-18 08:00:00 14.3 2 Norte 6 Sudoeste 0 -- -- 81
2019-05-18 07:00:00 14.5 5 Sudoeste 19 Sudoeste 0 -- -- 84
2019-05-18 06:00:00 14.6 4 Este 10 Nordeste 0 -- -- 77
2019-05-18 05:00:00 15.2 4 Norte 16 Nordeste 0 -- -- 73
2019-05-18 04:00:00 15.5 5 Norte 20 Noroeste 0 -- -- 79
2019-05-18 03:00:00 15.5 5 Noroeste 19 Norte 0 -- -- 79
2019-05-18 02:00:00 15.5 5 Noroeste 19 Norte 0 -- -- 81
2019-05-18 01:00:00 15.5 6 Norte 23 Norte 0 -- -- 79
2019-05-18 00:00:00 15.5 7 Norte 35 Norte 0 -- -- 80
2019-05-17 23:00:00 15.5 4 Norte 25 Norte 0 -- -- 80
2019-05-17 22:00:00 15.5 8 Nordeste 25 Norte 0 -- -- 80
2019-05-17 21:00:00 15.4 11 Norte 39 Norte 0.2 -- -- 78
2019-05-17 20:00:00 15.7 15 Norte 37 Norte 0 -- -- 78
2019-05-17 19:00:00 15.4 14 Norte 47 Norte 0.6 -- -- 81
2019-05-17 18:00:00 14.8 7 Norte 42 Sur 1.2 -- -- 91
2019-05-17 17:00:00 15 9 Noroeste 55 Oeste 2.2 -- -- 91
2019-05-17 16:00:00 17.7 10 Noroeste 37 Oeste 0 -- -- 66
2019-05-17 15:00:00 17.2 12 Noroeste 37 Oeste 0 -- -- 69
2019-05-17 14:00:00 17 9 Noroeste 35 Oeste 0 -- -- 69
2019-05-17 13:00:00 17.3 9 Noroeste 42 Oeste 0 -- -- 73
2019-05-17 12:00:00 19.7 11 Sudoeste 24 Sudoeste 1 -- -- 68
2019-05-17 11:00:00 21.3 6 Sudeste 17 Sudeste 0 -- -- 67
2019-05-17 10:00:00 18.9 10 Sur 19 Sur 0 -- -- 78
2019-05-17 09:00:00 17.3 14 Sur 20 Sudoeste 0 -- -- 81
2019-05-17 08:00:00 16.3 9 Sur 19 Sur 0 -- -- 83
2019-05-17 07:00:00 15.8 9 Sur 17 Sur 0 -- -- 81
2019-05-17 06:00:00 15.5 10 Sudeste 20 Sur 0 -- -- 82
2019-05-17 05:00:00 15.9 13 Sur 20 Sur 0 -- -- 82
2019-05-17 04:00:00 15.6 12 Sur 23 Sur 0 -- -- 85
2019-05-17 03:00:00 16 20 Sur 26 Sur 0 -- -- 83
2019-05-17 02:00:00 16 15 Sur 27 Sur 0 -- -- 84
2019-05-17 01:00:00 16.2 18 Sur 27 Sur 0 -- -- 83
2019-05-17 00:00:00 16 18 Sur 26 Sudoeste 0 -- -- 81
2019-05-16 23:00:00 16.2 18 Sur 30 Sur 0 -- -- 80
2019-05-16 22:00:00 16.9 19 Sur 30 Sudeste 0 -- -- 78
2019-05-16 21:00:00 17.6 19 Sudeste 31 Sudeste 0 -- -- 71
2019-05-16 20:00:00 19 20 Sudeste 36 Sudeste 0 -- -- 66
2019-05-16 19:00:00 22 28 Sudeste 40 Sudeste 0 -- -- 58
2019-05-16 18:00:00 21.6 8 Norte 22 Norte 0 -- -- 59
2019-05-16 17:00:00 20.6 10 Norte 26 Norte 0 -- -- 59
2019-05-16 16:00:00 20.2 14 Norte 27 Norte 0 -- -- 61
2019-05-16 15:00:00 20.7 13 Norte 26 Norte 0 -- -- 58
2019-05-16 14:00:00 21.6 12 Norte 24 Norte 0 -- -- 58
2019-05-16 13:00:00 22.8 6 Este 21 Este 0 -- -- 52
2019-05-16 12:00:00 23.3 6 Sudeste 14 Sudeste 0 -- -- 46
2019-05-16 11:00:00 21.5 9 Sur 15 Sur 0 -- -- 55
2019-05-16 10:00:00 18.8 10 Sur 15 Sur 0 -- -- 64
2019-05-16 09:00:00 16.6 3 Sur 5 Sudeste 0 -- -- 66
2019-05-16 08:00:00 11.6 0 Calma 3 Norte 0 -- -- 87
2019-05-16 07:00:00 10.4 2 Norte 3 Norte 0 -- -- 86
2019-05-16 06:00:00 11.7 2 Norte 3 Sudoeste 0 -- -- 84
2019-05-16 05:00:00 13.3 0 Calma 4 Nordeste 0 -- -- 82
2019-05-16 04:00:00 13.1 0 Calma 11 Sur 0 -- -- 84
2019-05-16 03:00:00 14.7 6 Sur 12 Sudoeste 0 -- -- 79
2019-05-16 02:00:00 14.2 5 Sudoeste 13 Sudoeste 0 -- -- 85
2019-05-16 01:00:00 14.7 10 Sur 14 Sudoeste 0 -- -- 82
2019-05-16 00:00:00 15.1 8 Sudoeste 13 Sudoeste 0 -- -- 81
2019-05-15 23:00:00 14.9 5 Este 15 Sudeste 0 -- -- 78
2019-05-15 22:00:00 14.8 3 Este 13 Norte 0 -- -- 78
2019-05-15 21:00:00 15.3 5 Nordeste 15 Nordeste 0 -- -- 73
2019-05-15 20:00:00 16.4 4 Noroeste 20 Nordeste 0 -- -- 68
2019-05-15 19:00:00 18.3 5 Nordeste 20 Norte 0 -- -- 62
2019-05-15 18:00:00 19 10 Este 25 Sudeste 0 -- -- 58
2019-05-15 17:00:00 19.4 6 Oeste 36 Nordeste 0 -- -- 55
2019-05-15 16:00:00 18.9 15 Nordeste 36 Nordeste 0 -- -- 66
2019-05-15 15:00:00 20.5 10 Norte 29 Norte 0 -- -- 53
2019-05-15 14:00:00 20.3 14 Norte 29 Noroeste 0 -- -- 55
2019-05-15 13:00:00 19.3 10 Norte 26 Norte 0 -- -- 50
2019-05-15 12:00:00 19.1 11 Norte 23 Norte 0 -- -- 56
2019-05-15 11:00:00 20.3 12 Norte 24 Nordeste 0 -- -- 71
2019-05-15 10:00:00 21.1 5 Nordeste 14 Norte 0 -- -- 55
2019-05-15 09:00:00 16.7 3 Sur 5 Sudeste 0 -- -- 64
2019-05-15 08:00:00 11.9 0 Calma 4 Norte 0 -- -- 84
2019-05-15 07:00:00 10.2 0 Calma 4 Este 0 -- -- 81
2019-05-15 06:00:00 10.5 2 Norte 4 Norte 0 -- -- 77
2019-05-15 05:00:00 11.1 2 Noroeste 5 Nordeste 0 -- -- 69
2019-05-15 04:00:00 11.2 0 Calma 5 Nordeste 0 -- -- 68
2019-05-15 03:00:00 11.9 2 Sudeste 5 Este 0 -- -- 72
2019-05-15 02:00:00 12.3 3 Este 5 Este 0 -- -- 71
2019-05-15 01:00:00 13.1 3 Norte 8 Sudeste 0 -- -- 66
2019-05-15 00:00:00 14.9 2 Este 11 Sur 0 -- -- 61
2019-05-14 23:00:00 17.6 10 Sur 15 Este 0 -- -- 55
2019-05-14 22:00:00 17.9 8 Este 20 Este 0 -- -- 50
2019-05-14 21:00:00 17.8 8 Este 17 Este 0 -- -- 64
2019-05-14 20:00:00 20.2 4 Sudeste 13 Sudeste 0 -- -- 57
2019-05-14 19:00:00 22.9 7 Sudeste 15 Norte 0 -- -- 42
2019-05-14 18:00:00 23 4 Noroeste 17 Sudeste 0 -- -- 36
2019-05-14 17:00:00 23.6 6 Sur 16 Norte 0 -- -- 40
2019-05-14 16:00:00 23.1 6 Norte 23 Norte 0 -- -- 36
2019-05-14 15:00:00 22.1 9 Norte 23 Nordeste 0 -- -- 41
2019-05-14 14:00:00 21.6 6 Noroeste 22 Norte 0 -- -- 46
2019-05-14 13:00:00 21.5 8 Norte 24 Norte 0 -- -- 51
2019-05-14 12:00:00 20.4 8 Noroeste 25 Nordeste 0 -- -- 51
2019-05-14 11:00:00 19.8 8 Noroeste 29 Noroeste 0 -- -- 51
2019-05-14 10:00:00 19.1 8 Noroeste 28 Norte 0 -- -- 51
2019-05-14 09:00:00 18.2 9 Noroeste 33 Norte 0 -- -- 68
2019-05-14 08:00:00 17 12 Noroeste 32 Noroeste 0 -- -- 70
2019-05-14 07:00:00 16.1 10 Noroeste 31 Noroeste 0 -- -- 68
2019-05-14 06:00:00 16 12 Noroeste 33 Norte 0 -- -- 67
2019-05-14 05:00:00 15.9 9 Noroeste 27 Norte 0 -- -- 70
2019-05-14 04:00:00 15.8 9 Noroeste 31 Norte 0 -- -- 71
2019-05-14 03:00:00 15.6 5 Norte 14 Norte 0 -- -- 73
2019-05-14 02:00:00 14 5 Noroeste 11 Norte 0 -- -- 79
2019-05-14 01:00:00 12.5 3 Norte 7 Norte 0 -- -- 81
2019-05-14 00:00:00 12.3 3 Norte 6 Norte 0 -- -- 77
2019-05-13 23:00:00 13.1 0 Calma 5 Este 0 -- -- 71
2019-05-13 22:00:00 14.1 3 Norte 9 Nordeste 0 -- -- 67
2019-05-13 21:00:00 16 2 Norte 15 Norte 0 -- -- 59
2019-05-13 20:00:00 17.7 5 Norte 16 Norte 0 -- -- 51
2019-05-13 19:00:00 19.3 9 Norte 24 Norte 0 -- -- 49
2019-05-13 18:00:00 18.8 12 Norte 27 Norte 0 -- -- 49
2019-05-13 17:00:00 19.2 12 Norte 36 Norte 0 -- -- 48
2019-05-13 16:00:00 20 16 Norte 37 Nordeste 0 -- -- 44
2019-05-13 15:00:00 19.6 14 Norte 39 Norte 0 -- -- 42
2019-05-13 14:00:00 19.9 15 Norte 39 Norte 0 -- -- 40
2019-05-13 13:00:00 19.8 19 Norte 48 Norte 0 -- -- 43
2019-05-13 12:00:00 19.3 14 Norte 33 Norte 0 -- -- 44
2019-05-13 11:00:00 19.2 10 Norte 31 Nordeste 0 -- -- 48
2019-05-13 10:00:00 17.6 14 Norte 41 Norte 0 -- -- 75
2019-05-13 09:00:00 17.4 6 Nordeste 25 Sudoeste 0 -- -- 79
2019-05-13 08:00:00 17 7 Sur 23 Nordeste 0 -- -- 80
2019-05-13 07:00:00 16.5 4 Oeste 28 Norte 0 -- -- 76
2019-05-13 06:00:00 15.9 7 Norte 28 Norte 0 -- -- 81
2019-05-13 05:00:00 16 12 Norte 34 Norte 0 -- -- 67
2019-05-13 04:00:00 16.8 18 Norte 46 Norte 0 -- -- 61
2019-05-13 03:00:00 17.2 15 Norte 41 Norte 0 -- -- 57
2019-05-13 02:00:00 17.2 9 Nordeste 30 Norte 0 -- -- 56
2019-05-13 01:00:00 16.7 6 Nordeste 15 Norte 0 -- -- 50
2019-05-13 00:00:00 13.9 4 Nordeste 12 Nordeste 0 -- -- 71
2019-05-12 23:00:00 13.7 3 Norte 8 Norte 0 -- -- 79
2019-05-12 22:00:00 16.1 4 Sudoeste 13 Sudoeste 0 -- -- 74
2019-05-12 21:00:00 16.5 4 Este 9 Norte 0 -- -- 69
2019-05-12 20:00:00 17.5 4 Nordeste 21 Nordeste 0 -- -- 62
2019-05-12 19:00:00 19.4 9 Norte 30 Norte 0 -- -- 61
2019-05-12 18:00:00 19.8 8 Norte 26 Norte 0 -- -- 55
2019-05-12 17:00:00 21.2 6 Noroeste 26 Noroeste 0 -- -- 52
2019-05-12 16:00:00 21.3 9 Noroeste 33 Oeste 0 -- -- 53
2019-05-12 15:00:00 21.4 8 Noroeste 28 Oeste 0 -- -- 56
2019-05-12 14:00:00 21.8 8 Noroeste 30 Noroeste 0 -- -- 54
2019-05-12 13:00:00 21.3 6 Noroeste 19 Norte 0 -- -- 56
2019-05-12 12:00:00 20.7 5 Noroeste 20 Norte 0 -- -- 60
2019-05-12 11:00:00 19.8 8 Nordeste 18 Nordeste 0 -- -- 58
2019-05-12 10:00:00 18.6 8 Norte 17 Norte 0 -- -- 62
2019-05-12 09:00:00 17.5 3 Noroeste 10 Norte 0 -- -- 66
2019-05-12 08:00:00 14.7 0 Calma 4 Norte 0 -- -- 84
2019-05-12 07:00:00 13.4 0 Calma 4 Norte 0 -- -- 87
2019-05-12 06:00:00 12.2 0 Calma 5 Norte 0 -- -- 89
2019-05-12 05:00:00 11.5 2 Noroeste 4 Noroeste 0 -- -- 88
2019-05-12 04:00:00 12 0 Calma 4 Norte 0 -- -- 86
2019-05-12 03:00:00 12.6 0 Calma 5 Norte 0 -- -- 86
2019-05-12 02:00:00 12.9 2 Norte 5 Nordeste 0 -- -- 87
2019-05-12 01:00:00 13.3 2 Norte 3 Norte 0 -- -- 85
2019-05-12 00:00:00 14.4 0 Calma 8 Sudoeste 0 -- -- 80
2019-05-11 23:00:00 16.1 2 Este 15 Nordeste 0 -- -- 74
2019-05-11 22:00:00 17 6 Este 23 Nordeste 0 -- -- 71
2019-05-11 21:00:00 17.3 10 Nordeste 23 Nordeste 0 -- -- 69
2019-05-11 20:00:00 18 12 Nordeste 31 Este 0 -- -- 66
2019-05-11 19:00:00 19.8 9 Nordeste 34 Nordeste 0 -- -- 64
2019-05-11 18:00:00 21.3 8 Nordeste 29 Nordeste 0 -- -- 55
2019-05-11 17:00:00 21.7 15 Norte 32 Norte 0 -- -- 59
2019-05-11 16:00:00 22.8 13 Norte 27 Norte 0 -- -- 60
2019-05-11 15:00:00 22.2 16 Nordeste 39 Norte 0 -- -- 61
2019-05-11 14:00:00 22.4 17 Nordeste 34 Norte 0 -- -- 60
2019-05-11 13:00:00 22.8 12 Norte 27 Norte 0 -- -- 64
2019-05-11 12:00:00 23.8 10 Este 22 Este 0 -- -- 64
2019-05-11 11:00:00 22.9 8 Este 19 Este 0 -- -- 67
2019-05-11 10:00:00 22.2 10 Este 21 Nordeste 0 -- -- 70
2019-05-11 09:00:00 20 10 Nordeste 19 Nordeste 0 -- -- 78
2019-05-11 08:00:00 19.5 6 Norte 12 Este 0 -- -- 80
2019-05-11 07:00:00 17.9 4 Norte 12 Noroeste 0 -- -- 88
2019-05-11 06:00:00 16.8 2 Norte 6 Norte 0 -- -- 87
2019-05-11 05:00:00 18 2 Oeste 7 Sudoeste 0 -- -- 85
2019-05-11 04:00:00 19.4 5 Sudeste 17 Norte 0 -- -- 77
2019-05-11 03:00:00 18.1 3 Norte 14 Norte 0 -- -- 82
2019-05-11 02:00:00 17 0 Calma 5 Este 0 -- -- 87
2019-05-11 01:00:00 17 3 Nordeste 6 Nordeste 0 -- -- 86
2019-05-11 00:00:00 17.7 2 Norte 4 Sur 0 -- -- 81
2019-05-10 23:00:00 18 3 Este 5 Este 0 -- -- 79
2019-05-10 22:00:00 19.3 0 Calma 2 Norte 0 -- -- 75
2019-05-10 21:00:00 21.1 0 Calma 5 Sudeste 0 -- -- 67
2019-05-10 20:00:00 22.6 2 Sudeste 14 Este 0 -- -- 61
2019-05-10 19:00:00 22.9 9 Este 29 Este 0 -- -- 66
2019-05-10 18:00:00 22 14 Este 35 Este 0 -- -- 70
2019-05-10 17:00:00 28.5 4 Noroeste 26 Noroeste 0 -- -- 43
2019-05-10 16:00:00 27.5 9 Norte 24 Noroeste 0 -- -- 46
2019-05-10 15:00:00 28.1 8 Noroeste 21 Norte 0 -- -- 44
2019-05-10 14:00:00 26.4 9 Noroeste 20 Norte 0 -- -- 50
2019-05-10 13:00:00 25.2 9 Norte 23 Norte 0 -- -- 57
2019-05-10 12:00:00 27.7 8 Norte 23 Norte 0 -- -- 45
2019-05-10 11:00:00 27.6 6 Noroeste 28 Sudoeste 0 -- -- 46
2019-05-10 10:00:00 24.5 5 Sudeste 10 Sudeste 0 -- -- 68
2019-05-10 09:00:00 21.5 2 Sur 17 Sudeste 0 -- -- 78
2019-05-10 08:00:00 17.9 3 Nordeste 17 Sudeste 0 -- -- 91
2019-05-10 07:00:00 16.7 3 Sudeste 17 Sudeste 0 -- -- 92
2019-05-10 06:00:00 15.5 3 Nordeste 8 Sudeste 0 -- -- 91
2019-05-10 05:00:00 15.4 3 Este 9 Sudeste 0 -- -- 88
2019-05-10 04:00:00 15.6 3 Norte 18 Sudoeste 0 -- -- 84
2019-05-10 03:00:00 17.1 11 Sudoeste 19 Sudoeste 0 -- -- 76
2019-05-10 02:00:00 16.1 2 Noroeste 13 Sur 0 -- -- 68
2019-05-10 01:00:00 14.3 2 Este 6 Este 0 -- -- 73
2019-05-10 00:00:00 14.2 0 Calma 4 Norte 0 -- -- 82
2019-05-09 23:00:00 14.7 0 Calma 3 Norte 0 -- -- 74
2019-05-09 22:00:00 16.5 0 Calma 9 Nordeste 0 -- -- 66
2019-05-09 21:00:00 18.1 7 Este 17 Este 0 -- -- 59
2019-05-09 20:00:00 19 9 Este 26 Este 0 -- -- 65
2019-05-09 19:00:00 20.7 13 Este 26 Este 0 -- -- 61
2019-05-09 18:00:00 21.6 13 Este 28 Este 0 -- -- 61
2019-05-09 17:00:00 23.9 5 Nordeste 34 Sudeste 0 -- -- 46
2019-05-09 16:00:00 23 7 Sudoeste 33 Este 0 -- -- 43
2019-05-09 15:00:00 22.1 13 Este 27 Este 0 -- -- 62
2019-05-09 14:00:00 24.1 8 Nordeste 27 Este 0 -- -- 51
2019-05-09 13:00:00 23.5 10 Norte 21 Norte 0 -- -- 40
2019-05-09 12:00:00 22.6 7 Sudeste 18 Nordeste 0 -- -- 54
2019-05-09 11:00:00 21.2 4 Norte 19 Norte 0 -- -- 64
2019-05-09 10:00:00 19.5 6 Norte 24 Este 0 -- -- 74
2019-05-09 09:00:00 19.8 3 Noroeste 15 Noroeste 0 -- -- 61
2019-05-09 08:00:00 18.3 5 Noroeste 23 Norte 0 -- -- 77
2019-05-09 07:00:00 18.8 9 Norte 32 Oeste 0 -- -- 68
2019-05-09 06:00:00 18.9 9 Noroeste 24 Oeste 0 -- -- 72
2019-05-09 05:00:00 20.3 7 Noroeste 35 Oeste 0 -- -- 64
2019-05-09 04:00:00 22.2 9 Noroeste 44 Oeste 0 -- -- 52
2019-05-09 03:00:00 23.1 12 Oeste 49 Oeste 0 -- -- 51
2019-05-09 02:00:00 23.6 10 Oeste 44 Oeste 0 -- -- 49
2019-05-09 01:00:00 24.2 12 Oeste 42 Oeste 0 -- -- 47
2019-05-09 00:00:00 21.3 13 Sudoeste 32 Sudoeste 0 -- -- 72
2019-05-08 23:00:00 19.2 17 Sudoeste 24 Sudoeste 0 -- -- 85
2019-05-08 22:00:00 19.7 10 Sur 27 Sudoeste 0 -- -- 82
2019-05-08 21:00:00 20.5 25 Sur 37 Sudoeste 0 -- -- 77
2019-05-08 20:00:00 21.7 25 Sur 35 Sur 0 -- -- 72
2019-05-08 19:00:00 22.5 18 Sur 29 Sudoeste 0 -- -- 72
2019-05-08 18:00:00 25.6 15 Sudeste 30 Sur 0 -- -- 62
2019-05-08 17:00:00 26.7 5 Sudeste 18 Este 0 -- -- 55
2019-05-08 16:00:00 27.9 9 Sudeste 15 Sudeste 0 -- -- 55
2019-05-08 15:00:00 26.8 6 Sudeste 21 Este 0 -- -- 54
2019-05-08 14:00:00 27 12 Sudeste 18 Sudeste 0 -- -- 55
2019-05-08 13:00:00 27 7 Sudeste 14 Sur 0 -- -- 57
2019-05-08 12:00:00 23.4 10 Sur 18 Sur 0 -- -- 67
2019-05-08 11:00:00 22.4 8 Sur 20 Sur 0 -- -- 73
2019-05-08 10:00:00 19.2 10 Sur 15 Sudoeste 0 -- -- 78
2019-05-08 09:00:00 18.2 2 Sur 12 Sudoeste 0 -- -- 80
2019-05-08 08:00:00 16.6 6 Sur 23 Sur 0 -- -- 87
2019-05-08 07:00:00 16.1 13 Sur 21 Sur 0 -- -- 89
2019-05-08 06:00:00 16 9 Sur 15 Sur 0 -- -- 90
2019-05-08 05:00:00 16 5 Sur 16 Sur 0 -- -- 88
2019-05-08 04:00:00 16.2 12 Sur 17 Sur 0 -- -- 88
2019-05-08 03:00:00 16.4 13 Sur 28 Sur 0 -- -- 88
2019-05-08 02:00:00 16.3 10 Sur 20 Sur 0 -- -- 89
2019-05-08 01:00:00 16.4 10 Sur 22 Sudoeste 0 -- -- 87
2019-05-08 00:00:00 16.3 12 Sur 21 Sur 0 -- -- 87
2019-05-07 23:00:00 16.6 14 Sur 24 Sur 0 -- -- 84
2019-05-07 22:00:00 17.1 14 Sudeste 24 Sur 0 -- -- 80
2019-05-07 21:00:00 18 16 Sudeste 28 Sur 0 -- -- 73
2019-05-07 20:00:00 19.4 17 Sudeste 28 Sudeste 0 -- -- 66
2019-05-07 19:00:00 22 19 Sur 30 Sur 0 -- -- 57
2019-05-07 18:00:00 23.9 20 Sudeste 30 Sudeste 0 -- -- 52
2019-05-07 17:00:00 24 15 Sur 31 Sur 0 -- -- 46
2019-05-07 16:00:00 23.6 20 Sur 32 Sur 0 -- -- 53
2019-05-07 15:00:00 23.4 18 Sur 30 Sur 0 -- -- 49
2019-05-07 14:00:00 22.6 21 Sur 32 Sur 0 -- -- 46
2019-05-07 13:00:00 22.1 17 Sur 27 Sur 0 -- -- 52
2019-05-07 12:00:00 21.2 14 Sur 30 Sur 0 -- -- 59
2019-05-07 11:00:00 19.5 18 Sur 28 Sur 0 -- -- 66
2019-05-07 10:00:00 17.8 18 Sur 29 Sur 0 -- -- 77
2019-05-07 09:00:00 15.8 11 Sudeste 19 Sudeste 0 -- -- 93
2019-05-07 08:00:00 11.5 0 Calma 3 Oeste 0 -- -- 98
2019-05-07 07:00:00 9.9 0 Calma 4 Norte 0 -- -- 96
2019-05-07 06:00:00 9.5 0 Calma 3 Norte 0 -- -- 95
2019-05-07 05:00:00 9.6 0 Calma 3 Norte 0 -- -- 94
2019-05-07 04:00:00 9.9 0 Calma 4 Norte 0 -- -- 93
2019-05-07 03:00:00 10.5 2 Norte 5 Este 0 -- -- 94
2019-05-07 02:00:00 10.9 2 Este 4 Sudeste 0 -- -- 91
2019-05-07 01:00:00 11.8 0 Calma 8 Sudeste 0 -- -- 89
2019-05-07 00:00:00 12.3 0 Calma 4 Sudeste 0 -- -- 85
2019-05-06 23:00:00 14.1 0 Calma 11 Sudoeste 0 -- -- 80
2019-05-06 22:00:00 15.5 4 Sudeste 17 Sudeste 0 -- -- 81
2019-05-06 21:00:00 15.3 4 Este 8 Este 0 -- -- 71
2019-05-06 20:00:00 16.9 4 Este 15 Sudeste 0 -- -- 63
2019-05-06 19:00:00 18.6 7 Este 21 Nordeste 0 -- -- 55
2019-05-06 18:00:00 17.7 11 Nordeste 25 Nordeste 0 -- -- 55
2019-05-06 17:00:00 17.6 10 Nordeste 27 Nordeste 0 -- -- 51
2019-05-06 16:00:00 18.4 8 Este 22 Norte 0 -- -- 49
2019-05-06 15:00:00 18.2 7 Nordeste 35 Sudeste 0 -- -- 49
2019-05-06 14:00:00 17.9 12 Sudeste 31 Sudeste 0 -- -- 48
2019-05-06 13:00:00 17.8 14 Sudeste 30 Sudeste 0 -- -- 48
2019-05-06 12:00:00 18.1 9 Sudeste 22 Sudeste 0 -- -- 48
2019-05-06 11:00:00 17.3 10 Sudeste 22 Sur 0 -- -- 47
2019-05-06 10:00:00 15.8 8 Sudeste 21 Sudeste 0 -- -- 52
2019-05-06 09:00:00 14.4 4 Sur 12 Sudeste 0 -- -- 63
2019-05-06 08:00:00 10.3 0 Calma 3 Norte 0 -- -- 81
2019-05-06 07:00:00 9.3 0 Calma 4 Norte 0 -- -- 80
2019-05-06 06:00:00 9.6 0 Calma 11 Nordeste 0 -- -- 77
2019-05-06 05:00:00 10.4 3 Norte 6 Norte 0 -- -- 73
2019-05-06 04:00:00 12.5 2 Nordeste 13 Nordeste 0 -- -- 65
2019-05-06 03:00:00 13.7 5 Nordeste 24 Este 0 -- -- 59
2019-05-06 02:00:00 12 6 Norte 19 Nordeste 0 -- -- 77
2019-05-06 01:00:00 10 2 Norte 4 Este 0 -- -- 83
2019-05-06 00:00:00 10.9 3 Norte 5 Este 0 -- -- 79
2019-05-05 23:00:00 14 6 Sudoeste 15 Sudoeste 0 -- -- 71
2019-05-05 22:00:00 14.6 5 Sur 12 Sur 0 -- -- 70
2019-05-05 21:00:00 14.3 3 Norte 15 Oeste 0 -- -- 50
2019-05-05 20:00:00 17 5 Oeste 21 Oeste 0 -- -- 38
2019-05-05 19:00:00 19.6 5 Noroeste 26 Oeste 0 -- -- 34
2019-05-05 18:00:00 19.9 6 Oeste 26 Oeste 0 -- -- 40
2019-05-05 17:00:00 20.1 7 Sudoeste 24 Oeste 0 -- -- 45
2019-05-05 16:00:00 20 7 Noroeste 24 Norte 0 -- -- 41
2019-05-05 15:00:00 18.4 9 Noroeste 27 Oeste 0 -- -- 54
2019-05-05 14:00:00 18.3 6 Norte 25 Norte 0 -- -- 54
2019-05-05 13:00:00 17.1 11 Norte 23 Norte 0 -- -- 55
2019-05-05 12:00:00 17.5 8 Norte 37 Norte 0 -- -- 50
2019-05-05 11:00:00 16.4 14 Norte 34 Norte 0 -- -- 51
2019-05-05 10:00:00 16 13 Norte 37 Norte 0 -- -- 48
2019-05-05 09:00:00 14.6 16 Norte 42 Norte 0 -- -- 49
2019-05-05 08:00:00 13.4 14 Norte 38 Nordeste 0 -- -- 51
2019-05-05 07:00:00 13.5 18 Norte 40 Nordeste 0 -- -- 54
2019-05-05 06:00:00 13.8 16 Norte 41 Nordeste 0 -- -- 61
2019-05-05 05:00:00 15.6 8 Oeste 30 Oeste 0 -- -- 65
2019-05-05 04:00:00 15.7 6 Noroeste 24 Oeste 0 -- -- 77
2019-05-05 03:00:00 11.5 4 Noroeste 11 Norte 0 -- -- 87
2019-05-05 02:00:00 10.9 2 Este 7 Sur 0 -- -- 88
2019-05-05 01:00:00 11.2 3 Norte 5 Sur 0 -- -- 84
2019-05-05 00:00:00 12.1 0 Calma 13 Sudoeste 0 -- -- 76
2019-05-04 23:00:00 13.8 2 Norte 15 Sudoeste 0 -- -- 69
2019-05-04 22:00:00 15.8 13 Sur 19 Sudoeste 0 -- -- 64
2019-05-04 21:00:00 15.1 2 Noroeste 14 Oeste 0 -- -- 60
2019-05-04 20:00:00 17.2 3 Noroeste 28 Oeste 0 -- -- 48
2019-05-04 19:00:00 19.4 5 Oeste 31 Oeste 0 -- -- 45
2019-05-04 18:00:00 20.4 6 Noroeste 24 Norte 0 -- -- 43
2019-05-04 17:00:00 19.6 10 Noroeste 31 Norte 0 -- -- 45
2019-05-04 16:00:00 19.5 10 Norte 27 Norte 0 -- -- 50
2019-05-04 15:00:00 20.2 5 Noroeste 30 Norte 0 -- -- 54
2019-05-04 14:00:00 19.3 11 Norte 28 Oeste 0 -- -- 49
2019-05-04 13:00:00 19.3 8 Noroeste 30 Oeste 0 -- -- 53
2019-05-04 12:00:00 18.2 9 Noroeste 27 Oeste 0 -- -- 65
2019-05-04 11:00:00 18.1 6 Noroeste 27 Oeste 0 -- -- 66
2019-05-04 10:00:00 17.2 5 Noroeste 28 Sudoeste 0 -- -- 69
2019-05-04 09:00:00 15.7 6 Noroeste 22 Norte 0 -- -- 75
2019-05-04 08:00:00 12.4 6 Noroeste 16 Nordeste 0 -- -- 97
2019-05-04 07:00:00 10.3 4 Norte 16 Norte 0 -- -- 99
2019-05-04 06:00:00 9.8 0 Calma 4 Nordeste 0 -- -- 99
2019-05-04 05:00:00 10.4 2 Norte 4 Norte 0 -- -- 98
2019-05-04 04:00:00 10.6 2 Norte 8 Este 0 -- -- 97
2019-05-04 03:00:00 11.6 3 Nordeste 17 Norte 1.2 -- -- 96
2019-05-04 02:00:00 12.3 9 Nordeste 22 Norte 6.2 -- -- 96
2019-05-04 01:00:00 12.9 5 Nordeste 12 Nordeste 0 -- -- 96
2019-05-04 00:00:00 12.9 7 Nordeste 15 Este 0 -- -- 96
2019-05-03 23:00:00 13 6 Nordeste 15 Este 1 -- -- 97
2019-05-03 22:00:00 12.9 2 Este 12 Norte 2.2 -- -- 97
2019-05-03 21:00:00 13.1 5 Norte 28 Norte 2.8 -- -- 96
2019-05-03 20:00:00 13.5 8 Nordeste 20 Norte 2.4 -- -- 95
2019-05-03 19:00:00 13.7 11 Nordeste 24 Nordeste 4.2 -- -- 92
2019-05-03 18:00:00 15.4 9 Nordeste 29 Nordeste 0 -- -- 82
2019-05-03 17:00:00 16.6 9 Nordeste 26 Norte 0 -- -- 74
2019-05-03 16:00:00 16.7 11 Nordeste 26 Nordeste 0 -- -- 75
2019-05-03 15:00:00 17.9 11 Nordeste 24 Este 0 -- -- 66
2019-05-03 14:00:00 19.9 9 Nordeste 26 Nordeste 0 -- -- 61
2019-05-03 13:00:00 20.4 6 Este 18 Sudeste 0 -- -- 63
2019-05-03 12:00:00 20.7 8 Sudeste 15 Sudeste 0 -- -- 65
2019-05-03 11:00:00 19.5 8 Sudeste 23 Sudeste 0 -- -- 71
2019-05-03 10:00:00 18.6 7 Este 13 Este 0 -- -- 74
2019-05-03 09:00:00 14.9 0 Calma 3 Sur 0 -- -- 92
2019-05-03 08:00:00 10.2 0 Calma 4 Norte 0 -- -- 97
2019-05-03 07:00:00 9.4 0 Calma 4 Norte 0 -- -- 96
2019-05-03 06:00:00 10.1 0 Calma 4 Nordeste 0 -- -- 96
2019-05-03 05:00:00 10.6 0 Calma 3 Norte 0 -- -- 95
2019-05-03 04:00:00 10.9 0 Calma 3 Noroeste 0 -- -- 95
2019-05-03 03:00:00 11.5 2 Norte 4 Nordeste 0 -- -- 95
2019-05-03 02:00:00 12.3 0 Calma 4 Norte 0 -- -- 92
2019-05-03 01:00:00 13.8 0 Calma 6 Este 0 -- -- 90
2019-05-03 00:00:00 15.2 3 Nordeste 13 Nordeste 0 -- -- 90
2019-05-02 23:00:00 15.5 4 Norte 15 Nordeste 0 -- -- 87
2019-05-02 22:00:00 15.6 3 Nordeste 13 Norte 0 -- -- 84
2019-05-02 21:00:00 16 5 Norte 20 Nordeste 0 -- -- 84
2019-05-02 20:00:00 16.7 8 Nordeste 17 Nordeste 0 -- -- 79
2019-05-02 19:00:00 18.4 5 Este 21 Norte 0 -- -- 71
2019-05-02 18:00:00 18.7 13 Norte 27 Norte 0 -- -- 68
2019-05-02 17:00:00 18.6 9 Nordeste 22 Nordeste 0 -- -- 61
2019-05-02 16:00:00 19.6 9 Nordeste 21 Este 0 -- -- 62
2019-05-02 15:00:00 19.4 5 Norte 22 Este 0 -- -- 75
2019-05-02 14:00:00 17.8 8 Norte 19 Sudeste 0 -- -- 81
2019-05-02 13:00:00 17 8 Nordeste 19 Norte 0 -- -- 87
2019-05-02 12:00:00 17.4 8 Nordeste 17 Sudeste 0 -- -- 80
2019-05-02 11:00:00 17.8 8 Este 17 Nordeste 0 -- -- 71
2019-05-02 10:00:00 17.5 5 Este 9 Sudeste 0 -- -- 73
2019-05-02 09:00:00 15.5 4 Sur 6 Sudoeste 0 -- -- 76
2019-05-02 08:00:00 11.8 3 Norte 5 Norte 0 -- -- 82
2019-05-02 07:00:00 10.3 3 Norte 5 Norte 0 -- -- 82
2019-05-02 06:00:00 9.5 3 Norte 4 Norte 0 -- -- 84
2019-05-02 05:00:00 9.9 0 Calma 4 Sudeste 0 -- -- 83
2019-05-02 04:00:00 10.5 3 Nordeste 4 Norte 0 -- -- 86
2019-05-02 03:00:00 11.4 0 Calma 7 Este 0 -- -- 84
2019-05-02 02:00:00 12.2 3 Este 6 Sudeste 0 -- -- 82
2019-05-02 01:00:00 15.4 2 Sur 17 Sur 0 -- -- 70
2019-05-02 00:00:00 15 5 Sur 8 Sur 0 -- -- 77
2019-05-01 23:00:00 16.4 6 Sur 13 Sur 0 -- -- 71
2019-05-01 22:00:00 16.3 8 Sur 14 Sur 0 -- -- 80
2019-05-01 21:00:00 16.4 4 Este 12 Norte 0 -- -- 78
2019-05-01 20:00:00 17.6 6 Norte 17 Noroeste 0 -- -- 72
2019-05-01 19:00:00 18.8 9 Norte 24 Norte 0 -- -- 68
2019-05-01 18:00:00 19.9 10 Norte 27 Norte 0 -- -- 57
2019-05-01 17:00:00 20.9 10 Norte 24 Este 0 -- -- 45
2019-05-01 16:00:00 20.8 7 Nordeste 24 Nordeste 0 -- -- 51
2019-05-01 15:00:00 21.5 10 Este 31 Nordeste 0 -- -- 50
2019-05-01 14:00:00 21.7 7 Norte 22 Nordeste 0 -- -- 45
2019-05-01 13:00:00 20.7 10 Norte 22 Nordeste 0 -- -- 52
2019-05-01 12:00:00 21.8 8 Este 17 Este 0 -- -- 54
2019-05-01 11:00:00 20.5 5 Este 11 Sudeste 0 -- -- 55
2019-05-01 10:00:00 18 5 Sur 8 Sur 0 -- -- 73
2019-05-01 09:00:00 14.6 0 Calma 4 Nordeste 0 -- -- 89
2019-05-01 08:00:00 10.7 0 Calma 8 Sur 0 -- -- 95
2019-05-01 07:00:00 9.5 0 Calma 3 Noroeste 0 -- -- 95
2019-05-01 06:00:00 10.4 0 Calma 5 Norte 0 -- -- 95
2019-05-01 05:00:00 11 4 Norte 6 Norte 0 -- -- 96
2019-05-01 04:00:00 10.6 2 Nordeste 3 Noroeste 0 -- -- 94
2019-05-01 03:00:00 10.7 2 Norte 4 Nordeste 0 -- -- 93
2019-05-01 02:00:00 11.3 2 Norte 5 Norte 0 -- -- 92
2019-05-01 01:00:00 11.8 0 Calma 2 Norte 0 -- -- 90
2019-05-01 00:00:00 13 0 Calma 4 Noroeste 0 -- -- 88
2019-04-30 23:00:00 14.2 4 Norte 9 Nordeste 0 -- -- 86
2019-04-30 22:00:00 14.7 4 Norte 9 Norte 0 -- -- 84
2019-04-30 21:00:00 15.5 4 Norte 7 Norte 0 -- -- 79
2019-04-30 20:00:00 16.9 3 Norte 13 Norte 0 -- -- 73
2019-04-30 19:00:00 18 7 Norte 16 Noroeste 0 -- -- 71
2019-04-30 18:00:00 19.8 6 Norte 19 Este 0 -- -- 64
2019-04-30 17:00:00 18.9 9 Este 21 Este 0 -- -- 65
2019-04-30 16:00:00 19.4 6 Nordeste 25 Este 0 -- -- 64
2019-04-30 15:00:00 20 6 Este 21 Este 0 -- -- 60
2019-04-30 14:00:00 20.3 6 Nordeste 21 Este 0 -- -- 63
2019-04-30 13:00:00 20.3 10 Este 21 Este 0 -- -- 61
2019-04-30 12:00:00 20.6 8 Este 16 Este 0 -- -- 64
2019-04-30 11:00:00 18.3 5 Norte 15 Noroeste 0 -- -- 70
2019-04-30 10:00:00 16.5 7 Norte 13 Nordeste 0 -- -- 81
2019-04-30 09:00:00 13.4 3 Sur 5 Sudoeste 0 -- -- 95
2019-04-30 08:00:00 9.9 2 Norte 3 Norte 0 -- -- 96
2019-04-30 07:00:00 10.1 0 Calma 4 Norte 0 -- -- 95
2019-04-30 06:00:00 10.3 0 Calma 3 Norte 0 -- -- 96
2019-04-30 05:00:00 9.9 2 Norte 4 Norte 0 -- -- 95
2019-04-30 04:00:00 9.6 0 Calma 2 Norte 0 -- -- 94
2019-04-30 03:00:00 9.8 3 Nordeste 4 Norte 0 -- -- 93
2019-04-30 02:00:00 10.2 0 Calma 3 Norte 0 -- -- 92
2019-04-30 01:00:00 11 0 Calma 4 Norte 0 -- -- 90
2019-04-30 00:00:00 11.5 2 Norte 4 Norte 0 -- -- 88
2019-04-29 23:00:00 12.4 0 Calma 4 Este 0 -- -- 83
2019-04-29 22:00:00 14.8 3 Este 9 Este 0 -- -- 77
2019-04-29 21:00:00 15.4 3 Nordeste 11 Nordeste 0 -- -- 75
2019-04-29 20:00:00 16.4 5 Norte 14 Norte 0 -- -- 70
2019-04-29 19:00:00 18.3 6 Norte 16 Noroeste 0 -- -- 62
2019-04-29 18:00:00 18.9 4 Sudeste 12 Norte 0 -- -- 62
2019-04-29 17:00:00 18.5 2 Sur 13 Noroeste 0 -- -- 60
2019-04-29 16:00:00 19.4 5 Nordeste 18 Nordeste 0 -- -- 56
2019-04-29 15:00:00 19.2 7 Norte 18 Este 0 -- -- 57
2019-04-29 14:00:00 19.5 6 Nordeste 16 Norte 0 -- -- 53
2019-04-29 13:00:00 18.6 4 Este 19 Sudeste 0 -- -- 54
2019-04-29 12:00:00 19.3 4 Este 13 Sudeste 0 -- -- 54
2019-04-29 11:00:00 18.6 3 Sur 12 Sudeste 0 -- -- 56
2019-04-29 10:00:00 17.3 4 Sur 5 Sudeste 0 -- -- 74
2019-04-29 09:00:00 14.7 0 Calma 6 Sudeste 0 -- -- 84
2019-04-29 08:00:00 12.1 0 Calma 6 Norte 0 -- -- 94
2019-04-29 07:00:00 11.1 0 Calma 7 Sudoeste 0 -- -- 91
2019-04-29 06:00:00 12.6 4 Sudoeste 9 Sur 0 -- -- 91
2019-04-29 05:00:00 13.6 5 Sur 9 Sudoeste 0 -- -- 87
2019-04-29 04:00:00 13.9 6 Sudoeste 14 Sudoeste 0 -- -- 86
2019-04-29 03:00:00 14.4 8 Sur 11 Sur 0 -- -- 84
2019-04-29 02:00:00 14.7 7 Sur 14 Sudoeste 0 -- -- 83
2019-04-29 01:00:00 15.1 9 Sur 11 Sur 0 -- -- 83
2019-04-29 00:00:00 15.3 6 Sur 11 Sudeste 0 -- -- 82
2019-04-28 23:00:00 15.5 8 Sur 13 Sudeste 0 -- -- 80
2019-04-28 22:00:00 15.7 8 Sudeste 14 Sudeste 0 -- -- 80
2019-04-28 21:00:00 15.8 7 Este 21 Sudeste 0 -- -- 77
2019-04-28 20:00:00 16.5 7 Nordeste 16 Nordeste 0 -- -- 75
2019-04-28 19:00:00 16.8 8 Este 19 Sudeste 0 -- -- 73
2019-04-28 18:00:00 16.6 13 Sudeste 31 Sudeste 0 -- -- 73
2019-04-28 17:00:00 17.6 13 Sudeste 30 Norte 0 -- -- 67
2019-04-28 16:00:00 18.1 11 Norte 30 Norte 0 -- -- 67
2019-04-28 15:00:00 18.2 13 Norte 33 Norte 0 -- -- 66
2019-04-28 14:00:00 18.2 14 Norte 38 Norte 0 -- -- 66
2019-04-28 13:00:00 17.9 14 Norte 36 Nordeste 0 -- -- 67
2019-04-28 12:00:00 19.1 12 Norte 30 Norte 0 -- -- 65
2019-04-28 11:00:00 18.4 9 Norte 27 Nordeste 0 -- -- 69
2019-04-28 10:00:00 17.9 5 Este 15 Nordeste 0 -- -- 74
2019-04-28 09:00:00 14.8 2 Sur 6 Este 0 -- -- 84
2019-04-28 08:00:00 9.9 0 Calma 6 Sudoeste 0 -- -- 94
2019-04-28 07:00:00 9.3 3 Sudeste 5 Sudeste 0 -- -- 94
2019-04-28 06:00:00 9.5 0 Calma 5 Norte 0 -- -- 92
2019-04-28 05:00:00 9.8 0 Calma 3 Norte 0 -- -- 91
2019-04-28 04:00:00 10.1 0 Calma 4 Norte 0 -- -- 90
2019-04-28 03:00:00 10.6 0 Calma 4 Norte 0 -- -- 88
2019-04-28 02:00:00 11.1 2 Norte 3 Norte 0 -- -- 86
2019-04-28 01:00:00 11.7 2 Norte 6 Este 0 -- -- 86
2019-04-28 00:00:00 12.2 2 Norte 3 Nordeste 0 -- -- 83
2019-04-27 23:00:00 13 2 Norte 7 Este 0 -- -- 79
2019-04-27 22:00:00 15.6 3 Este 13 Nordeste 0 -- -- 75
2019-04-27 21:00:00 17.4 0 Calma 12 Noroeste 0 -- -- 63
2019-04-27 20:00:00 19.2 4 Norte 11 Noroeste 0 -- -- 41
2019-04-27 19:00:00 20.9 5 Noroeste 19 Norte 0 -- -- 40
2019-04-27 18:00:00 21.2 9 Norte 20 Nordeste 0 -- -- 45
2019-04-27 17:00:00 -- 4 Noroeste 21 Norte 0 -- -- --
2019-04-27 16:00:00 21.9 8 Norte 28 Noroeste 0 -- -- 43
2019-04-27 15:00:00 21.2 10 Noroeste 23 Norte 0 -- -- 45
2019-04-27 14:00:00 21.7 8 Norte 24 Este 0 -- -- 41
2019-04-27 13:00:00 19.8 12 Este 27 Este 0 -- -- 67
2019-04-27 12:00:00 20.1 10 Este 21 Este 0 -- -- 65
2019-04-27 11:00:00 19.8 5 Este 12 Sudeste 0 -- -- 59
2019-04-27 10:00:00 17 3 Sudoeste 6 Sur 0 -- -- 71
2019-04-27 09:00:00 14.9 0 Calma 5 Sur 0 -- -- 82
2019-04-27 08:00:00 9.6 0 Calma 4 Norte 0 -- -- 94
2019-04-27 07:00:00 9.3 0 Calma 5 Nordeste 0 -- -- 93
2019-04-27 06:00:00 9.2 0 Calma 3 Noroeste 0 -- -- 91
2019-04-27 05:00:00 9.6 3 Norte 8 Norte 0 -- -- 90
2019-04-27 04:00:00 10.1 0 Calma 3 Norte 0 -- -- 89
2019-04-27 03:00:00 10.5 0 Calma 4 Norte 0 -- -- 86
2019-04-27 02:00:00 11.2 3 Norte 6 Nordeste 0 -- -- 84
2019-04-27 01:00:00 11.6 0 Calma 6 Este 0 -- -- 77
2019-04-27 00:00:00 12.6 4 Sudeste 7 Sudeste 0 -- -- 74
2019-04-26 23:00:00 13 3 Sur 9 Sudeste 0 -- -- 72
2019-04-26 22:00:00 13.4 0 Calma 6 Norte 0 -- -- 60
2019-04-26 21:00:00 15.6 2 Norte 6 Sudoeste 0 -- -- 54
2019-04-26 20:00:00 18.7 0 Calma 11 Oeste 0 -- -- 42
2019-04-26 19:00:00 21.1 3 Oeste 13 Norte 0 -- -- 38
2019-04-26 18:00:00 20.9 5 Noroeste 19 Norte 0 -- -- 37
2019-04-26 17:00:00 21.6 6 Noroeste 20 Norte 0 -- -- 38
2019-04-26 16:00:00 20.5 9 Norte 23 Norte 0 -- -- 41
2019-04-26 15:00:00 20.9 7 Noroeste 20 Oeste 0 -- -- 40
2019-04-26 14:00:00 20.6 9 Noroeste 28 Oeste 0 -- -- 47
2019-04-26 13:00:00 20.3 8 Noroeste 32 Oeste 0 -- -- 46
2019-04-26 12:00:00 19 13 Oeste 39 Sudoeste 0 -- -- 52
2019-04-26 11:00:00 18.9 10 Oeste 35 Oeste 0 -- -- 50
2019-04-26 10:00:00 18.1 8 Noroeste 39 Oeste 0 -- -- 52
2019-04-26 09:00:00 17.6 6 Oeste 32 Oeste 0 -- -- 54
2019-04-26 08:00:00 15.5 6 Noroeste 22 Oeste 0 -- -- 61
2019-04-26 07:00:00 13.2 4 Noroeste 16 Oeste 0 -- -- 73
2019-04-26 06:00:00 12.1 3 Norte 9 Sudoeste 0 -- -- 76
2019-04-26 05:00:00 13.3 2 Norte 12 Noroeste 0 -- -- 70
2019-04-26 04:00:00 16.5 3 Sudoeste 16 Sudoeste 0 -- -- 60
2019-04-26 03:00:00 14.3 2 Norte 5 Norte 0 -- -- 89
2019-04-26 02:00:00 15.1 2 Sudoeste 19 Sur 0 -- -- 88
2019-04-26 01:00:00 16.3 15 Sur 24 Sudoeste 0 -- -- 82
2019-04-26 00:00:00 15.7 6 Sudoeste 18 Sudoeste 0 -- -- 83